.
WxDataArchive / Data Records for 2012-12-20
2012-12-19 December 2012 2012-12-21

Data Records for Thursday, 20 December 2012

Time	Temp	Chill	HIndex	Humid	Dewpt	 Wind 	HiWind	WindDir	Rain 	Barom 
-----	----	-----	------	-----	-----	------	------	-------	-----	----- 
00:00	38.3	34.5	38.3	86	34.5	5	10	90	0.00	29.957 
00:05	38.3	34.5	38.3	86	34.5	5	13	90	0.00	29.957 
00:10	38.2	33.6	38.2	86	34.4	6	11	90	0.00	29.957 
00:15	38.3	33.7	38.3	86	34.5	6	10	90	0.00	29.940 
00:20	38.3	33.7	38.3	86	34.5	6	12	90	0.00	29.940 
00:25	38.3	35.4	38.3	86	34.5	4	10	90	0.00	29.940 
00:30	38.5	34.7	38.5	86	34.7	5	9	90	0.00	29.946 
00:35	38.5	35.6	38.5	86	34.7	4	7	90	0.00	29.946 
00:40	38.5	38.5	38.5	85	34.4	3	9	90	0.00	29.946 
00:45	38.6	38.6	38.6	85	34.5	3	7	90	0.00	29.989 
00:50	38.6	38.6	38.6	85	34.5	1	2	90	0.00	29.989 
00:55	38.6	38.6	38.6	85	34.5	2	6	90	0.00	29.989 
01:00	38.6	38.6	38.6	85	34.5	2	4	90	0.00	29.991 
01:05	38.6	38.6	38.6	85	34.5	2	5	90	0.00	29.991 
01:10	38.6	38.6	38.6	85	34.5	3	6	90	0.00	29.991 
01:15	38.5	38.5	38.5	85	34.4	3	6	90	0.00	29.961 
01:20	38.5	38.5	38.5	86	34.7	3	6	90	0.00	29.961 
01:25	38.3	35.4	38.3	87	34.8	4	9	90	0.00	29.961 
01:30	38.2	35.2	38.2	88	35.0	4	12	90	0.00	29.930 
01:35	38.2	38.2	38.2	88	35.0	3	10	90	0.00	29.930 
01:40	38.0	38.0	38.0	88	34.8	3	7	90	0.00	29.930 
01:45	38.0	34.1	38.0	89	35.1	5	11	90	0.00	29.899 
01:50	37.9	34.9	37.9	89	35.0	4	11	90	0.00	29.899 
01:55	38.0	35.0	38.0	89	35.1	4	9	90	0.00	29.899 
02:00	38.0	34.1	38.0	89	35.1	5	12	90	0.00	29.898 
02:05	38.2	35.2	38.2	88	35.0	4	10	90	0.00	29.898 
02:10	38.3	34.5	38.3	88	35.1	5	10	90	0.00	29.898 
02:15	38.3	33.7	38.3	88	35.1	6	13	90	0.00	29.882 
02:20	38.5	35.6	38.5	89	35.5	4	11	90	0.01	29.882 
02:25	38.5	35.6	38.5	89	35.5	4	11	90	0.00	29.882 
02:30	38.5	35.6	38.5	89	35.5	4	11	90	0.00	29.864 
02:35	38.5	34.7	38.5	89	35.5	5	15	90	0.00	29.864 
02:40	38.5	34.0	38.5	90	35.8	6	14	90	0.00	29.864 
02:45	38.5	34.0	38.5	90	35.8	6	13	90	0.00	29.840 
02:50	38.6	33.5	38.6	90	35.9	7	15	112	0.00	29.840 
02:55	38.6	32.9	38.6	89	35.6	8	13	112	0.00	29.840 
03:00	38.8	33.1	38.8	89	35.8	8	17	90	0.00	29.819 
03:05	38.9	33.8	38.9	89	35.9	7	15	90	0.00	29.819 
03:10	39.1	34.1	39.1	88	35.9	7	13	90	0.00	29.819 
03:15	39.2	34.2	39.2	88	35.9	7	18	112	0.00	29.810 
03:20	39.2	33.6	39.2	88	35.9	8	17	90	0.00	29.810 
03:25	39.3	34.3	39.3	88	36.0	7	13	90	0.00	29.810 
03:30	39.3	34.3	39.3	88	36.0	7	21	90	0.00	29.801 
03:35	39.5	33.5	39.5	87	36.0	9	16	90	0.00	29.801 
03:40	39.6	34.7	39.6	87	36.1	7	19	90	0.00	29.801 
03:45	39.8	36.2	39.8	87	36.3	5	9	90	0.00	29.817 
03:50	39.8	35.5	39.8	87	36.3	6	12	90	0.01	29.817 
03:55	39.8	36.2	39.8	88	36.5	5	11	90	0.02	29.817 
04:00	39.6	36.0	39.6	88	36.3	5	12	90	0.00	29.814 
04:05	39.6	35.3	39.6	89	36.6	6	13	90	0.01	29.814 
04:10	39.6	36.0	39.6	89	36.6	5	11	90	0.00	29.814 
04:15	39.5	35.2	39.5	90	36.8	6	14	90	0.00	29.801 
04:20	39.6	36.0	39.6	90	36.9	5	12	90	0.01	29.801 
04:25	39.6	36.0	39.6	90	36.9	5	13	90	0.00	29.801 
04:30	39.6	35.3	39.6	90	36.9	6	12	90	0.00	29.773 
04:35	39.5	35.9	39.5	90	36.8	5	10	90	0.00	29.773 
04:40	39.5	36.7	39.5	90	36.8	4	9	90	0.00	29.773 
04:45	39.6	36.0	39.6	90	36.9	5	11	90	0.00	29.764 
04:50	39.6	36.9	39.6	90	36.9	4	9	90	0.00	29.764 
04:55	39.6	36.0	39.6	90	36.9	5	9	90	0.00	29.764 
05:00	39.6	36.0	39.6	90	36.9	5	10	90	0.00	29.749 
05:05	39.6	36.0	39.6	90	36.9	5	11	90	0.00	29.749 
05:10	39.6	36.0	39.6	90	36.9	5	10	90	0.00	29.749 
05:15	39.6	34.7	39.6	90	36.9	7	15	90	0.00	29.739 
05:20	39.6	36.0	39.6	90	36.9	5	13	90	0.00	29.739 
05:25	39.8	35.5	39.8	89	36.8	6	13	90	0.00	29.739 
05:30	39.8	35.5	39.8	89	36.8	6	16	90	0.00	29.731 
05:35	39.9	35.6	39.9	88	36.6	6	11	90	0.00	29.731 
05:40	39.9	36.4	39.9	88	36.6	5	10	90	0.00	29.731 
05:45	39.9	35.6	39.9	88	36.6	6	12	90	0.00	29.727 
05:50	39.9	35.6	39.9	88	36.6	6	14	90	0.00	29.727 
05:55	40.1	35.9	40.1	88	36.8	6	12	90	0.00	29.727 
06:00	40.1	37.4	40.1	88	36.8	4	10	90	0.00	29.721 
06:05	40.1	37.4	40.1	88	36.8	4	12	90	0.00	29.721 
06:10	40.1	40.1	40.1	87	36.5	3	5	90	0.00	29.721 
06:15	40.1	40.1	40.1	87	36.5	3	6	90	0.00	29.710 
06:20	40.1	37.4	40.1	88	36.8	4	10	90	0.00	29.710 
06:25	39.9	37.2	39.9	88	36.6	4	9	90	0.01	29.710 
06:30	39.8	36.2	39.8	88	36.5	5	14	90	0.00	29.686 
06:35	39.8	36.2	39.8	88	36.5	5	10	90	0.00	29.686 
06:40	39.6	35.3	39.6	88	36.3	6	13	90	0.00	29.686 
06:45	39.6	36.0	39.6	88	36.3	5	10	90	0.00	29.666 
06:50	39.5	35.2	39.5	88	36.2	6	12	90	0.00	29.666 
06:55	39.5	34.5	39.5	88	36.2	7	16	90	0.00	29.666 
07:00	39.5	35.2	39.5	88	36.2	6	11	90	0.00	29.646 
07:05	39.5	34.5	39.5	88	36.2	7	15	90	0.00	29.646 
07:10	39.5	34.5	39.5	87	36.0	7	15	90	0.00	29.646 
07:15	39.6	35.3	39.6	87	36.1	6	12	90	0.00	29.632 
07:20	39.8	36.2	39.8	87	36.3	5	11	90	0.00	29.632 
07:25	39.9	35.0	39.9	86	36.1	7	12	90	0.00	29.632 
07:30	39.9	35.0	39.9	85	35.8	7	14	90	0.00	29.628 
07:35	40.1	35.9	40.1	85	36.0	6	13	90	0.00	29.628 
07:40	40.1	35.9	40.1	85	36.0	6	13	90	0.00	29.628 
07:45	40.1	35.9	40.1	85	36.0	6	13	90	0.00	29.601 
07:50	40.1	34.7	40.1	85	36.0	8	16	90	0.00	29.601 
07:55	40.1	35.3	40.1	86	36.3	7	15	90	0.00	29.601 
08:00	40.1	37.4	40.1	86	36.3	4	13	90	0.01	29.587 
08:05	39.9	36.4	39.9	87	36.4	5	19	90	0.02	29.587 
08:10	39.9	37.2	39.9	88	36.6	4	11	90	0.02	29.587 
08:15	39.8	37.1	39.8	88	36.5	4	8	90	0.02	29.579 
08:20	39.6	35.3	39.6	89	36.6	6	12	112	0.01	29.579 
08:25	39.6	35.3	39.6	89	36.6	6	14	90	0.01	29.579 
08:30	39.6	34.7	39.6	89	36.6	7	14	90	0.01	29.561 
08:35	39.6	35.3	39.6	89	36.6	6	15	90	0.01	29.561 
08:40	39.5	35.2	39.5	90	36.8	6	11	90	0.01	29.561 
08:45	39.5	35.9	39.5	90	36.8	5	14	90	0.01	29.554 
08:50	39.5	36.7	39.5	90	36.8	4	12	90	0.01	29.554 
08:55	39.5	35.9	39.5	91	37.1	5	12	90	0.01	29.554 
09:00	39.5	35.2	39.5	91	37.1	6	10	90	0.02	29.545 
09:05	39.5	35.2	39.5	91	37.1	6	12	90	0.01	29.545 
09:10	39.6	34.7	39.6	91	37.2	7	13	90	0.01	29.545 
09:15	39.6	34.7	39.6	91	37.2	7	13	90	0.02	29.542 
09:20	39.6	36.0	39.6	91	37.2	5	9	90	0.03	29.542 
09:25	39.6	36.0	39.6	92	37.5	5	12	90	0.03	29.542 
09:30	39.6	36.0	39.6	92	37.5	5	11	90	0.03	29.550 
09:35	39.8	39.8	39.8	92	37.7	3	7	112	0.02	29.550 
09:40	39.8	36.2	39.8	92	37.7	5	11	90	0.01	29.550 
09:45	39.9	37.2	39.9	93	38.0	4	9	90	0.03	29.535 
09:50	39.9	39.9	39.9	93	38.0	3	9	90	0.01	29.535 
09:55	39.9	36.4	39.9	93	38.0	5	11	90	0.01	29.535 
10:00	40.1	36.6	40.1	93	38.2	5	11	90	0.01	29.526 
10:05	40.1	37.4	40.1	93	38.2	4	9	90	0.02	29.526 
10:10	40.1	37.4	40.1	93	38.2	4	7	90	0.01	29.526 
10:15	40.1	37.4	40.1	94	38.5	4	8	90	0.00	29.522 
10:20	40.1	37.4	40.1	94	38.5	4	11	90	0.01	29.522 
10:25	40.2	37.5	40.2	94	38.6	4	6	90	0.00	29.522 
10:30	40.2	37.5	40.2	94	38.6	4	7	112	0.01	29.511 
10:35	40.2	36.7	40.2	94	38.6	5	9	90	0.01	29.511 
10:40	40.2	36.7	40.2	94	38.6	5	12	90	0.01	29.511 
10:45	40.2	36.7	40.2	94	38.6	5	10	90	0.01	29.484 
10:50	40.2	36.0	40.2	94	38.6	6	14	90	0.00	29.484 
10:55	40.3	36.1	40.3	95	39.0	6	12	90	0.00	29.484 
11:00	40.5	37.1	40.5	95	39.2	5	9	90	0.00	29.469 
11:05	40.6	38.0	40.6	95	39.3	4	9	90	0.00	29.469 
11:10	41.1	41.1	41.1	95	39.8	3	5	90	0.01	29.469 
11:15	41.3	38.8	41.3	95	40.0	4	9	90	0.00	29.460 
11:20	41.6	39.2	41.6	95	40.3	4	6	90	0.01	29.460 
11:25	42.1	39.7	42.1	95	40.8	4	9	90	0.00	29.460 
11:30	42.6	39.5	42.6	96	41.5	5	9	90	0.00	29.410 
11:35	43.1	40.9	43.1	96	42.0	4	9	112	0.00	29.410 
11:40	43.8	43.8	43.8	96	42.7	3	9	90	0.00	29.410 
11:45	44.3	42.3	44.3	96	43.2	4	7	90	0.00	29.375 
11:50	44.8	42.9	44.8	96	43.7	4	9	112	0.01	29.375 
11:55	45.1	42.5	45.1	96	44.0	5	10	112	0.00	29.375 
12:00	45.2	42.6	45.2	96	44.1	5	12	90	0.00	29.330 
12:05	45.4	42.2	45.4	96	44.3	6	15	90	0.00	29.330 
12:10	45.5	41.3	45.5	96	44.4	8	17	90	0.00	29.330 
12:15	45.8	42.1	45.8	96	44.7	7	16	112	0.00	29.298 
12:20	46.1	42.5	46.1	96	45.0	7	16	90	0.00	29.298 
12:25	46.2	44.5	46.2	96	45.1	4	16	112	0.00	29.298 
12:30	46.4	43.4	46.4	96	45.3	6	14	90	0.00	29.280 
12:35	46.7	45.1	46.7	95	45.3	4	12	112	0.00	29.280 
12:40	46.8	46.8	46.8	95	45.4	3	7	112	0.00	29.280 
12:45	47.0	45.4	47.0	95	45.6	4	11	90	0.00	29.261 
12:50	47.1	47.1	47.1	95	45.7	3	9	90	0.00	29.261 
12:55	47.1	47.1	47.1	95	45.7	3	11	90	0.00	29.261 
13:00	47.3	45.8	47.3	95	45.9	4	11	68	0.00	29.245 
13:05	47.4	45.9	47.4	95	46.0	4	7	90	0.00	29.245 
13:10	47.6	47.6	47.6	95	46.2	3	10	90	0.00	29.245 
13:15	47.7	47.7	47.7	94	46.1	3	8	112	0.00	29.229 
13:20	48.0	48.0	48.0	94	46.4	3	7	90	0.00	29.229 
13:25	48.2	48.2	48.2	94	46.6	3	11	68	0.00	29.229 
13:30	48.2	46.1	48.2	93	46.3	5	14	90	0.00	29.228 
13:35	48.5	45.9	48.5	93	46.6	6	16	90	0.00	29.228 
13:40	48.5	45.4	48.5	92	46.3	7	14	90	0.00	29.228 
13:45	48.6	46.0	48.6	92	46.4	6	14	90	0.00	29.228 
13:50	48.8	47.5	48.8	91	46.3	4	10	112	0.00	29.228 
13:55	48.9	45.9	48.9	91	46.4	7	13	90	0.00	29.228 
14:00	48.9	46.4	48.9	90	46.1	6	25	90	0.00	29.211 
14:05	49.1	47.2	49.1	90	46.3	5	25	90	0.00	29.211 
14:10	49.2	46.7	49.2	90	46.4	6	14	90	0.00	29.211 
14:15	49.4	47.5	49.4	89	46.3	5	14	90	0.00	29.194 
14:20	49.5	47.1	49.5	89	46.4	6	13	90	0.00	29.194 
14:25	49.6	47.2	49.6	88	46.2	6	19	112	0.00	29.194 
14:30	49.6	47.7	49.6	89	46.5	5	12	90	0.00	29.188 
14:35	49.5	47.6	49.5	89	46.4	5	13	68	0.00	29.188 
14:40	49.5	47.6	49.5	90	46.7	5	16	90	0.00	29.188 
14:45	49.5	48.3	49.5	90	46.7	4	14	90	0.00	29.180 
14:50	49.5	48.3	49.5	90	46.7	4	10	90	0.00	29.180 
14:55	49.6	48.4	49.6	89	46.5	4	10	90	0.00	29.180 
15:00	49.6	47.7	49.6	89	46.5	5	14	90	0.00	29.170 
15:05	49.8	48.0	49.8	89	46.7	5	11	90	0.00	29.170 
15:10	49.9	48.8	49.9	89	46.8	4	12	90	0.00	29.170 
15:15	50.1	50.1	50.1	88	46.7	3	7	90	0.00	29.161 
15:20	50.1	50.1	50.1	88	46.7	3	7	90	0.00	29.161 
15:25	50.2	50.2	50.2	88	46.8	4	10	90	0.00	29.161 
15:30	50.4	50.4	50.4	88	47.0	5	9	90	0.00	29.148 
15:35	50.4	50.4	50.4	87	46.7	3	9	90	0.00	29.148 
15:40	50.5	50.5	50.5	87	46.8	3	8	90	0.00	29.148 
15:45	50.7	50.7	50.7	86	46.7	5	10	90	0.00	29.142 
15:50	50.8	50.8	50.8	85	46.5	5	11	90	0.00	29.142 
15:55	51.0	51.0	51.0	85	46.7	4	7	90	0.00	29.142 
16:00	51.0	51.0	51.0	85	46.7	4	7	90	0.00	29.131 
16:05	51.0	51.0	51.0	84	46.3	4	13	90	0.00	29.131 
16:10	50.7	50.7	50.7	84	46.0	6	14	248	0.03	29.131 
16:15	48.6	47.3	48.6	83	43.7	4	13	270	0.00	29.160 
16:20	47.3	47.3	47.3	85	43.0	2	10	270	0.01	29.160 
16:25	46.7	46.7	46.7	86	42.7	1	5	270	0.01	29.160 
16:30	46.4	46.4	46.4	87	42.7	1	3	292	0.00	29.151 
16:35	46.1	46.1	46.1	88	42.7	1	4	248	0.00	29.151 
16:40	46.0	46.0	46.0	88	42.6	1	4	90	0.00	29.151 
16:45	46.0	46.0	46.0	89	42.9	1	6	68	0.00	29.146 
16:50	45.8	45.8	45.8	89	42.7	1	3	68	0.00	29.146 
16:55	45.8	45.8	45.8	89	42.7	0	4	68	0.00	29.146 
17:00	45.8	45.8	45.8	89	42.7	1	5	248	0.00	29.138 
17:05	45.8	45.8	45.8	89	42.7	1	4	225	0.00	29.138 
17:10	45.8	45.8	45.8	90	43.0	1	5	248	0.01	29.138 
17:15	45.7	45.7	45.7	90	42.9	3	10	248	0.00	29.156 
17:20	44.6	40.7	44.6	87	41.0	7	19	248	0.00	29.156 
17:25	43.9	41.1	43.9	87	40.3	5	11	248	0.00	29.156 
17:30	43.5	43.5	43.5	87	39.9	3	7	248	0.00	29.175 
17:35	43.1	43.1	43.1	87	39.5	3	10	248	0.00	29.175 
17:40	42.9	40.7	42.9	86	39.0	4	11	248	0.00	29.175 
17:45	42.8	40.6	42.8	86	38.9	4	10	248	0.00	29.189 
17:50	42.8	40.6	42.8	85	38.6	4	12	248	0.00	29.189 
17:55	42.6	39.5	42.6	83	37.8	5	13	248	0.00	29.189 
18:00	42.3	40.0	42.3	82	37.2	4	11	248	0.00	29.195 
18:05	42.2	39.1	42.2	80	36.5	5	14	248	0.00	29.195 
18:10	42.1	38.3	42.1	79	36.1	6	14	248	0.00	29.195 
18:15	41.9	38.0	41.9	78	35.5	6	13	248	0.00	29.210 
18:20	41.5	37.5	41.5	77	34.8	6	17	248	0.00	29.210 
18:25	40.9	38.4	40.9	78	34.6	4	13	248	0.00	29.210 
18:30	40.5	40.5	40.5	79	34.5	3	12	248	0.00	29.219 
18:35	39.9	36.4	39.9	80	34.2	5	14	248	0.00	29.219 
18:40	39.6	36.9	39.6	80	33.9	4	11	248	0.00	29.219 
18:45	39.5	36.7	39.5	79	33.5	4	14	248	0.00	29.220 
18:50	39.5	35.9	39.5	77	32.9	5	12	248	0.00	29.220 
18:55	39.3	39.3	39.3	75	32.0	3	12	248	0.00	29.220 
19:00	39.1	39.1	39.1	74	31.5	3	9	248	0.00	29.220 
19:05	39.1	39.1	39.1	73	31.2	3	11	248	0.00	29.220 
19:10	38.9	38.9	38.9	73	31.0	3	9	248	0.00	29.220 
19:15	38.9	38.9	38.9	73	31.0	3	7	248	0.00	29.216 
19:20	38.8	38.8	38.8	73	30.9	3	7	248	0.00	29.216 
19:25	38.8	38.8	38.8	73	30.9	2	7	248	0.00	29.216 
19:30	38.2	34.4	38.2	76	31.3	5	17	248	0.00	29.221 
19:35	37.3	34.2	37.3	78	31.1	4	11	248	0.00	29.221 
19:40	36.8	33.6	36.8	80	31.2	4	12	248	0.00	29.221 
19:45	36.5	36.5	36.5	80	30.9	2	12	248	0.00	29.221 
19:50	36.3	36.3	36.3	80	30.7	1	5	225	0.00	29.221 
19:55	36.3	36.3	36.3	79	30.4	3	9	248	0.00	29.221 
20:00	36.3	33.0	36.3	78	30.1	4	12	270	0.00	29.222 
20:05	36.3	36.3	36.3	77	29.8	3	13	248	0.00	29.222 
20:10	36.2	32.9	36.2	77	29.7	4	13	270	0.00	29.222 
20:15	35.9	35.9	35.9	77	29.4	3	10	248	0.00	29.223 
20:20	35.8	31.5	35.8	78	29.6	5	15	248	0.00	29.223 
20:25	35.5	35.5	35.5	80	30.0	3	10	248	0.00	29.223 
20:30	35.2	35.2	35.2	82	30.3	3	9	248	0.00	29.223 
20:35	35.0	35.0	35.0	83	30.4	2	6	248	0.00	29.223 
20:40	34.9	34.9	34.9	84	30.6	2	5	270	0.00	29.223 
20:45	34.6	34.6	34.6	85	30.6	3	6	248	0.00	29.223 
20:50	34.3	34.3	34.3	86	30.6	2	5	248	0.00	29.223 
20:55	34.1	34.1	34.1	87	30.6	1	5	248	0.00	29.223 
21:00	34.1	34.1	34.1	87	30.6	2	9	292	0.00	29.217 
21:05	34.0	34.0	34.0	87	30.5	1	5	270	0.00	29.217 
21:10	34.0	34.0	34.0	88	30.8	1	6	248	0.00	29.217 
21:15	34.0	34.0	34.0	88	30.8	1	4	248	0.00	29.210 
21:20	33.8	33.8	33.8	88	30.6	2	6	248	0.00	29.210 
21:25	33.8	33.8	33.8	87	30.3	2	6	248	0.00	29.210 
21:30	33.7	33.7	33.7	87	30.3	3	9	248	0.00	29.209 
21:35	33.5	33.5	33.5	87	30.1	2	6	248	0.00	29.209 
21:40	33.4	33.4	33.4	87	30.0	2	7	248	0.00	29.209 
21:45	33.2	33.2	33.2	88	30.0	1	4	68	0.00	29.209 
21:50	32.9	32.9	32.9	89	30.0	2	6	90	0.00	29.209 
21:55	32.8	32.8	32.8	89	29.9	1	3	68	0.00	29.209 
22:00	32.7	32.7	32.7	90	30.1	1	7	90	0.00	29.197 
22:05	32.5	32.5	32.5	90	29.9	1	5	338	0.00	29.197 
22:10	32.5	32.5	32.5	90	29.9	1	3	248	0.00	29.197 
22:15	32.5	32.5	32.5	91	30.2	1	4	22	0.00	29.193 
22:20	32.5	32.5	32.5	91	30.2	1	3	292	0.00	29.193 
22:25	32.4	32.4	32.4	91	30.1	1	3	248	0.00	29.193 
22:30	32.4	32.4	32.4	91	30.1	1	5	90	0.00	29.195 
22:35	32.4	32.4	32.4	91	30.1	1	3	45	0.00	29.195 
22:40	32.4	32.4	32.4	91	30.1	2	7	248	0.00	29.195 
22:45	32.4	32.4	32.4	92	30.3	1	6	248	0.00	29.184 
22:50	32.5	32.5	32.5	92	30.4	1	3	248	0.00	29.184 
22:55	32.5	32.5	32.5	92	30.4	1	5	248	0.00	29.184 
23:00	32.7	32.7	32.7	92	30.6	1	6	248	0.00	29.189 
23:05	32.7	32.7	32.7	92	30.6	0	3	248	0.00	29.189 
23:10	32.8	32.8	32.8	92	30.7	1	4	248	0.00	29.189 
23:15	32.9	32.9	32.9	92	30.8	1	4	248	0.00	29.188 
23:20	32.9	32.9	32.9	92	30.8	0	3	248	0.00	29.188 
23:25	33.1	33.1	33.1	92	31.0	1	5	248	0.00	29.188 
23:30	33.2	33.2	33.2	92	31.1	2	6	248	0.00	29.188 
23:35	33.2	33.2	33.2	92	31.1	1	3	248	0.00	29.188 
23:40	33.4	33.4	33.4	92	31.3	1	4	248	0.00	29.188 
23:45	33.5	33.5	33.5	92	31.4	2	7	248	0.00	29.191 
23:50	33.7	33.7	33.7	92	31.6	2	7	248	0.00	29.191 
23:55	33.8	33.8	33.8	92	31.7	2	6	248	0.00	29.191 

CoCoRaHS
IN-AL-39
A2 Web Hosting
Creative Commons License
GoDaddy
search engine by freefind advanced

loaded 2018-11-17 12:27:09 • last modified 2010-11-18 10:43:29
Privacy PolicyDisclaimer
• wx.awcolley.com is powered by PmWiki v.2002016 •
• all content (unless otherwise noted) © 2018 A W Colley